Time;durP1;ratioP1;P1;durP2;ratioP2;P2;SDS_P1;SDS_P2;PMS_P1;PMS_P2;Temp;Humidity;BMP_temperature;BMP_pressure;BME280_temperature;BME280_humidity;BME280_pressure;Samples;Min_cycle;Max_cycle;Signal;HPM_P1;HPM_P2
2021/12/04 00:00:03;;;;;;;156.38;42.78;;;5.10;99.90;;;;;;6284428;22;20011;-80
2021/12/04 00:02:28;;;;;;;171.20;46.78;;;5.10;99.90;;;;;;6284300;22;20030;-80
2021/12/04 00:04:55;;;;;;;104.28;32.95;;;5.00;99.90;;;;;;6257962;22;20411;-79
2021/12/04 00:07:22;;;;;;;162.30;43.78;;;5.00;99.90;;;;;;6283977;22;20038;-79
2021/12/04 00:09:50;;;;;;;170.00;46.83;;;5.00;99.90;;;;;;6283592;22;20026;-79
2021/12/04 00:12:18;;;;;;;153.40;43.20;;;5.00;99.90;;;;;;6284225;22;20108;-80
2021/12/04 00:14:44;;;;;;;189.68;46.85;;;5.00;99.90;;;;;;6284132;22;20015;-80
2021/12/04 00:17:11;;;;;;;168.02;45.70;;;5.00;99.90;;;;;;6296837;22;20022;-81
2021/12/04 00:19:37;;;;;;;236.90;49.72;;;5.00;99.90;;;;;;6309574;22;20308;-79
2021/12/04 00:22:03;;;;;;;192.27;48.42;;;5.00;99.90;;;;;;6309568;22;20019;-79
2021/12/04 00:24:28;;;;;;;165.48;44.83;;;5.00;99.90;;;;;;6284240;22;20411;-79
2021/12/04 00:26:54;;;;;;;144.45;36.88;;;5.00;99.90;;;;;;6309706;22;20015;-79
2021/12/04 00:29:21;;;;;;;211.57;46.85;;;5.00;99.90;;;;;;6309849;22;20033;-79
2021/12/04 00:31:52;;;;;;;217.85;47.70;;;5.00;99.90;;;;;;6309669;22;20021;-79
2021/12/04 00:34:21;;;;;;;181.23;39.45;;;5.00;99.90;;;;;;6310697;22;20372;-79
2021/12/04 00:50:12;;;;;;;179.27;42.83;;;5.00;99.90;;;;;;6309224;22;20366;-80
2021/12/04 00:52:38;;;;;;;204.63;46.97;;;5.00;99.90;;;;;;6309222;22;20102;-79
2021/12/04 00:55:06;;;;;;;225.77;46.85;;;5.00;99.90;;;;;;6283517;22;20019;-79
2021/12/04 00:57:32;;;;;;;202.95;46.13;;;5.00;99.90;;;;;;6309919;22;20011;-80
2021/12/04 00:59:58;;;;;;;194.82;45.67;;;5.00;99.90;;;;;;6309579;22;20042;-79
2021/12/04 01:02:24;;;;;;;209.40;46.80;;;5.00;99.90;;;;;;6283567;22;20362;-80
2021/12/04 01:04:50;;;;;;;182.98;44.80;;;5.00;99.90;;;;;;6309521;22;20015;-80
2021/12/04 01:07:16;;;;;;;185.50;43.83;;;5.00;99.90;;;;;;6309237;22;20371;-79
2021/12/04 01:09:43;;;;;;;193.02;46.08;;;5.00;99.90;;;;;;6309220;22;20018;-79
2021/12/04 01:12:09;;;;;;;189.10;45.35;;;5.00;99.90;;;;;;6309494;22;20015;-80
2021/12/04 01:14:36;;;;;;;174.43;40.70;;;5.00;99.90;;;;;;6309770;22;20015;-80
2021/12/04 01:17:02;;;;;;;186.95;46.28;;;5.00;99.90;;;;;;6308610;22;20015;-80
2021/12/04 01:19:29;;;;;;;167.07;43.72;;;5.00;99.90;;;;;;6309512;22;20094;-80
2021/12/04 01:21:55;;;;;;;196.40;45.25;;;5.10;99.90;;;;;;6309234;22;20022;-80
2021/12/04 01:24:22;;;;;;;174.50;47.08;;;5.10;99.90;;;;;;6283334;22;20088;-80
2021/12/04 01:26:48;;;;;;;171.25;43.03;;;5.10;99.90;;;;;;6309330;22;20023;-80
2021/12/04 01:29:16;;;;;;;201.85;46.92;;;5.00;99.90;;;;;;6308943;22;20319;-80
2021/12/04 01:31:41;;;;;;;188.48;48.92;;;5.10;99.90;;;;;;6310427;22;20030;-79
2021/12/04 01:34:07;;;;;;;210.00;50.72;;;5.00;99.90;;;;;;6308872;22;20008;-80
2021/12/04 01:36:33;;;;;;;209.40;51.35;;;5.00;99.90;;;;;;6308356;22;20023;-79
2021/12/04 01:38:59;;;;;;;257.13;56.15;;;5.00;99.90;;;;;;6309675;22;20022;-80
2021/12/04 01:41:25;;;;;;;226.43;52.20;;;5.00;99.90;;;;;;6310268;22;20015;-79
2021/12/04 01:43:51;;;;;;;201.30;49.53;;;5.00;99.90;;;;;;6308709;22;20008;-80
2021/12/04 01:46:16;;;;;;;245.50;55.63;;;5.00;99.90;;;;;;6310277;22;20015;-80
2021/12/04 01:48:42;;;;;;;262.50;56.08;;;5.00;99.90;;;;;;6309362;22;20069;-79
2021/12/04 01:51:07;;;;;;;238.52;52.95;;;4.90;99.90;;;;;;6308084;22;20410;-80
2021/12/04 01:53:33;;;;;;;276.67;55.95;;;5.00;99.90;;;;;;6308836;22;20033;-80
2021/12/04 01:56:00;;;;;;;261.67;52.60;;;5.00;99.90;;;;;;6309242;22;20045;-80
2021/12/04 01:58:27;;;;;;;259.17;55.33;;;4.90;99.90;;;;;;6283627;22;20030;-80
2021/12/04 02:00:53;;;;;;;333.33;62.25;;;4.90;99.90;;;;;;6309161;22;20403;-79
2021/12/04 02:03:19;;;;;;;320.92;57.55;;;4.90;99.90;;;;;;6308785;22;20065;-79
2021/12/04 02:05:48;;;;;;;296.98;57.85;;;5.00;99.90;;;;;;6308588;22;20019;-79
2021/12/04 02:08:16;;;;;;;266.65;54.55;;;4.90;99.90;;;;;;6308815;22;20015;-80
2021/12/04 02:10:44;;;;;;;281.10;55.72;;;5.00;99.90;;;;;;6309159;22;20019;-79
2021/12/04 02:13:10;;;;;;;283.48;57.25;;;5.00;99.90;;;;;;6309335;22;20015;-80
2021/12/04 02:15:36;;;;;;;258.13;51.00;;;4.90;99.90;;;;;;6309204;22;20019;-80
2021/12/04 02:18:04;;;;;;;314.02;58.40;;;4.90;99.90;;;;;;6308222;22;20400;-80
2021/12/04 02:20:33;;;;;;;261.90;56.67;;;5.00;99.90;;;;;;6282370;22;20049;-79
2021/12/04 02:22:59;;;;;;;247.15;52.80;;;5.00;99.90;;;;;;6309041;22;20133;-80
2021/12/04 02:25:24;;;;;;;321.42;58.65;;;4.90;99.90;;;;;;6309110;22;20026;-80
2021/12/04 02:27:51;;;;;;;319.70;54.75;;;5.00;99.90;;;;;;6282964;22;20090;-79
2021/12/04 02:30:20;;;;;;;411.17;67.05;;;4.90;99.90;;;;;;6282793;22;20428;-79
2021/12/04 02:32:46;;;;;;;267.65;52.45;;;5.00;99.90;;;;;;6308549;22;20015;-79
2021/12/04 02:35:13;;;;;;;275.27;56.33;;;5.00;99.90;;;;;;6308231;22;20019;-79
2021/12/04 02:37:39;;;;;;;261.73;53.28;;;4.90;99.90;;;;;;6282497;22;20090;-80
2021/12/04 02:40:08;;;;;;;273.75;54.95;;;4.90;99.90;;;;;;6308549;22;20427;-79
2021/12/04 02:42:34;;;;;;;235.52;52.58;;;5.00;99.90;;;;;;6308773;22;20050;-80
2021/12/04 02:45:02;;;;;;;257.85;54.75;;;4.90;99.90;;;;;;6282668;22;20080;-80
2021/12/04 02:47:28;;;;;;;231.07;50.15;;;4.90;99.90;;;;;;6308541;22;20320;-79
2021/12/04 02:49:55;;;;;;;188.02;48.83;;;4.90;99.90;;;;;;6308242;22;20072;-80
2021/12/04 02:52:22;;;;;;;225.00;48.45;;;4.90;99.90;;;;;;6308529;22;20095;-79
2021/12/04 02:54:48;;;;;;;223.82;49.97;;;4.90;99.90;;;;;;6308610;22;20019;-79
2021/12/04 02:57:16;;;;;;;199.88;46.88;;;4.90;99.90;;;;;;6282573;22;20352;-79
2021/12/04 02:59:43;;;;;;;192.23;46.75;;;4.90;99.90;;;;;;6308074;22;20075;-80
2021/12/04 03:02:20;;;;;;;223.20;48.33;;;4.80;99.90;;;;;;6308083;22;20011;-79
2021/12/04 03:04:47;;;;;;;207.35;47.20;;;4.80;99.90;;;;;;6282501;22;20080;-79
2021/12/04 03:07:14;;;;;;;245.55;50.42;;;4.80;99.90;;;;;;6308538;22;20019;-79
2021/12/04 03:09:40;;;;;;;160.15;39.88;;;4.90;99.90;;;;;;6309413;22;20362;-79
2021/12/04 03:12:06;;;;;;;206.57;47.38;;;4.80;99.90;;;;;;6308648;22;20015;-80
2021/12/04 03:14:33;;;;;;;185.88;46.35;;;4.80;99.90;;;;;;6281971;22;20432;-80
2021/12/04 03:16:59;;;;;;;187.77;46.28;;;4.80;99.90;;;;;;6307819;22;20016;-79
2021/12/04 03:19:25;;;;;;;195.38;45.60;;;4.90;99.90;;;;;;6308157;22;20019;-80
2021/12/04 03:21:52;;;;;;;206.20;47.20;;;4.80;99.90;;;;;;6308223;22;20419;-79
2021/12/04 03:24:18;;;;;;;212.95;44.40;;;4.80;99.90;;;;;;6308226;22;20467;-79
2021/12/04 03:26:47;;;;;;;191.85;45.22;;;4.80;99.90;;;;;;6282682;22;20011;-80
2021/12/04 03:29:17;;;;;;;223.18;46.47;;;4.90;99.90;;;;;;6307962;22;20278;-79
2021/12/04 03:32:04;;;;;;;193.05;41.83;;;4.80;99.90;;;;;;6308330;22;20016;-79
2021/12/04 03:40:21;;;;;;;266.00;48.65;;;4.80;99.90;;;;;;6308154;22;20019;-79
2021/12/04 03:42:46;;;;;;;235.77;45.00;;;4.80;99.90;;;;;;6307849;22;20015;-79
2021/12/04 03:45:13;;;;;;;199.15;42.67;;;4.90;99.90;;;;;;6308134;22;20034;-79
2021/12/04 03:47:43;;;;;;;188.35;43.10;;;4.80;99.90;;;;;;6307908;22;20088;-80
2021/12/04 03:50:09;;;;;;;266.70;48.00;;;4.80;99.90;;;;;;6307865;22;20015;-79
2021/12/04 03:52:36;;;;;;;280.67;48.85;;;4.90;99.90;;;;;;6281923;22;20011;-80
2021/12/04 03:55:04;;;;;;;328.98;52.42;;;4.80;99.90;;;;;;6307835;22;20015;-79
2021/12/04 03:57:29;;;;;;;270.50;47.53;;;4.80;99.90;;;;;;6281892;22;20015;-80
2021/12/04 03:59:55;;;;;;;306.40;50.97;;;4.80;99.90;;;;;;6308094;22;20011;-79
2021/12/04 04:02:21;;;;;;;268.10;48.17;;;4.90;99.90;;;;;;6308185;22;20007;-79
2021/12/04 04:04:46;;;;;;;233.45;44.50;;;4.90;99.90;;;;;;6307578;22;20007;-79
2021/12/04 04:07:12;;;;;;;276.67;50.55;;;4.80;99.90;;;;;;6308024;22;20077;-80
2021/12/04 04:09:38;;;;;;;245.55;48.70;;;4.90;99.90;;;;;;6307918;22;20022;-79
2021/12/04 04:12:04;;;;;;;230.45;43.42;;;4.90;99.90;;;;;;6308255;22;20023;-79
2021/12/04 04:14:30;;;;;;;346.92;55.38;;;4.90;99.90;;;;;;6309036;22;20023;-80
2021/12/04 04:16:57;;;;;;;402.45;58.35;;;4.90;99.90;;;;;;6309909;22;20030;-80
2021/12/04 04:19:24;;;;;;;303.65;49.70;;;4.90;99.90;;;;;;6309669;22;20140;-80
2021/12/04 04:21:56;;;;;;;340.20;54.15;;;4.90;99.90;;;;;;6309893;22;20427;-79
2021/12/04 04:24:23;;;;;;;401.85;57.78;;;4.90;99.90;;;;;;6309822;22;20462;-80
2021/12/04 04:26:48;;;;;;;233.32;46.20;;;4.90;99.90;;;;;;6309900;22;20117;-80
2021/12/04 04:29:14;;;;;;;279.80;46.30;;;5.00;99.90;;;;;;6309445;22;20023;-79
2021/12/04 04:31:48;;;;;;;289.33;46.83;;;4.90;99.90;;;;;;6309467;22;20023;-79
2021/12/04 04:34:31;;;;;;;252.27;41.10;;;4.90;99.90;;;;;;6309489;22;20366;-80
2021/12/04 04:37:17;;;;;;;306.42;50.22;;;4.90;99.90;;;;;;6284318;22;20446;-79
2021/12/04 04:40:16;;;;;;;347.10;51.30;;;4.90;99.90;;;;;;6309803;22;20030;-79
2021/12/04 04:59:13;;;;;;;315.87;48.33;;;4.90;99.90;;;;;;6310251;22;20080;-79
2021/12/04 05:12:53;;;;;;;241.50;45.78;;;5.00;99.90;;;;;;6309325;22;20021;-80
2021/12/04 05:15:34;;;;;;;266.40;45.15;;;5.00;99.90;;;;;;6283840;22;20062;-80
2021/12/04 05:21:03;;;;;;;258.73;47.08;;;5.00;99.90;;;;;;6309274;22;20023;-80
2021/12/04 05:23:30;;;;;;;263.00;45.42;;;5.00;99.90;;;;;;6283425;22;20098;-80
2021/12/04 05:25:55;;;;;;;397.40;58.38;;;5.00;99.90;;;;;;6309097;22;20019;-79
2021/12/04 05:28:21;;;;;;;307.75;53.85;;;5.00;99.90;;;;;;6308971;22;20015;-80
2021/12/04 05:30:47;;;;;;;285.80;49.55;;;5.00;99.90;;;;;;6283009;22;20023;-80
2021/12/04 05:33:12;;;;;;;275.70;52.28;;;5.10;99.90;;;;;;6283608;22;20030;-79
2021/12/04 05:35:38;;;;;;;281.17;48.88;;;5.10;99.90;;;;;;6309060;22;20098;-80
2021/12/04 05:38:04;;;;;;;263.00;48.08;;;5.00;99.90;;;;;;6309295;22;20368;-80
2021/12/04 05:40:30;;;;;;;381.85;57.08;;;5.00;99.90;;;;;;6283236;22;20023;-80
2021/12/04 05:43:01;;;;;;;287.10;48.50;;;5.00;99.90;;;;;;6282980;22;20015;-80
2021/12/04 05:45:29;;;;;;;318.42;51.83;;;5.00;99.90;;;;;;6308696;22;20320;-80
2021/12/04 05:48:09;;;;;;;302.20;51.67;;;5.00;99.90;;;;;;6308986;22;20019;-80
2021/12/04 05:50:54;;;;;;;288.15;48.42;;;5.00;99.90;;;;;;6283155;22;20423;-80
2021/12/04 05:58:25;;;;;;;278.13;50.40;;;5.00;99.90;;;;;;6308838;22;20297;-80
2021/12/04 06:00:52;;;;;;;346.30;55.40;;;4.90;99.90;;;;;;6308895;22;20015;-80
2021/12/04 06:03:18;;;;;;;393.27;56.42;;;4.90;99.90;;;;;;6308480;22;20046;-79
2021/12/04 06:05:44;;;;;;;361.98;52.78;;;4.90;99.90;;;;;;6308427;22;20022;-79
2021/12/04 06:08:11;;;;;;;352.45;54.97;;;5.00;99.90;;;;;;6309737;22;20015;-80
2021/12/04 06:10:36;;;;;;;239.57;45.42;;;5.00;99.90;;;;;;6308878;22;20018;-77
2021/12/04 06:13:02;;;;;;;397.98;57.10;;;4.90;99.90;;;;;;6309889;22;20078;-77
2021/12/04 06:15:28;;;;;;;290.95;48.03;;;4.90;99.90;;;;;;6309960;22;20016;-76
2021/12/04 06:17:55;;;;;;;371.17;56.25;;;4.90;99.90;;;;;;6309344;22;20366;-75
2021/12/04 06:23:05;;;;;;;354.63;54.17;;;4.90;99.90;;;;;;6309676;22;20019;-75
2021/12/04 06:25:31;;;;;;;291.15;47.78;;;5.00;99.90;;;;;;6309750;22;20016;-76
2021/12/04 06:27:56;;;;;;;337.27;50.90;;;5.00;99.90;;;;;;6309686;22;20015;-75
2021/12/04 06:30:23;;;;;;;262.23;44.58;;;5.00;99.90;;;;;;6309043;22;20333;-76
2021/12/04 06:32:50;;;;;;;343.33;52.75;;;4.90;99.90;;;;;;6282312;22;20435;-76
2021/12/04 06:35:17;;;;;;;308.35;51.38;;;4.90;99.90;;;;;;6309524;22;20082;-76
2021/12/04 06:37:44;;;;;;;352.23;52.55;;;5.00;99.90;;;;;;6309432;22;20023;-75
2021/12/04 06:40:12;;;;;;;309.92;48.58;;;5.00;99.90;;;;;;6309995;22;20039;-74
2021/12/04 06:42:38;;;;;;;330.85;49.97;;;4.90;99.90;;;;;;6309869;22;20015;-77
2021/12/04 06:45:05;;;;;;;300.77;47.03;;;5.00;99.90;;;;;;6308869;22;20439;-76
2021/12/04 06:47:32;;;;;;;248.07;43.42;;;5.00;99.90;;;;;;6308743;22;20057;-77
2021/12/04 06:50:05;;;;;;;341.67;50.00;;;5.00;99.90;;;;;;6282565;22;20342;-76
2021/12/04 06:52:31;;;;;;;320.45;50.03;;;5.00;99.90;;;;;;6309657;22;20098;-76
2021/12/04 06:54:59;;;;;;;495.40;59.13;;;5.00;99.90;;;;;;6309568;22;20055;-76
2021/12/04 06:57:25;;;;;;;430.98;55.78;;;5.00;99.90;;;;;;6309557;22;20015;-76
2021/12/04 06:59:54;;;;;;;335.15;50.53;;;5.10;99.90;;;;;;6309350;22;20065;-77
2021/12/04 07:02:20;;;;;;;289.70;46.17;;;5.00;99.90;;;;;;6309027;22;20015;-76
2021/12/04 07:04:45;;;;;;;317.77;49.45;;;5.10;99.90;;;;;;6309472;22;20035;-77
2021/12/04 07:07:12;;;;;;;499.90;57.72;;;5.10;99.90;;;;;;6282919;22;20080;-76
2021/12/04 07:09:38;;;;;;;245.95;46.20;;;5.00;99.90;;;;;;6309435;22;20430;-77
2021/12/04 07:12:04;;;;;;;289.92;45.83;;;5.10;99.90;;;;;;6309321;22;20011;-76
2021/12/04 07:14:30;;;;;;;313.48;48.38;;;5.10;99.90;;;;;;6309167;22;20015;-76
2021/12/04 07:16:57;;;;;;;332.33;48.35;;;5.00;99.90;;;;;;6309102;22;20058;-77
2021/12/04 07:19:23;;;;;;;281.30;45.92;;;5.00;99.90;;;;;;6309251;22;20056;-76
2021/12/04 07:21:48;;;;;;;284.42;44.28;;;5.00;99.90;;;;;;6309250;22;20008;-76
2021/12/04 07:24:15;;;;;;;332.90;49.03;;;5.00;99.90;;;;;;6309250;22;20100;-76
2021/12/04 07:26:41;;;;;;;265.67;43.13;;;5.00;99.90;;;;;;6309380;22;20026;-77
2021/12/04 07:29:07;;;;;;;279.48;43.83;;;5.10;99.90;;;;;;6309176;22;20051;-77
2021/12/04 07:31:33;;;;;;;280.80;46.60;;;5.10;99.90;;;;;;6309119;22;20054;-76
2021/12/04 07:33:59;;;;;;;248.07;42.85;;;5.00;99.90;;;;;;6309443;22;20323;-77
2021/12/04 07:36:25;;;;;;;393.80;52.50;;;5.00;99.90;;;;;;6256419;22;20030;-76
2021/12/04 07:38:51;;;;;;;236.05;44.42;;;5.00;99.90;;;;;;6281997;22;20015;-76
2021/12/04 07:41:17;;;;;;;263.45;45.47;;;5.10;99.90;;;;;;6309272;22;20312;-70
2021/12/04 07:43:43;;;;;;;166.45;39.63;;;5.10;99.90;;;;;;6309042;22;20038;-71
2021/12/04 07:46:08;;;;;;;116.90;33.42;;;5.10;99.90;;;;;;6309010;22;20098;-71
2021/12/04 07:48:34;;;;;;;171.90;40.08;;;5.10;99.90;;;;;;6281961;22;20358;-71
2021/12/04 07:51:01;;;;;;;351.63;50.42;;;5.20;99.90;;;;;;6284259;22;20022;-70
2021/12/04 07:53:29;;;;;;;240.88;42.25;;;5.30;99.90;;;;;;6311234;22;20019;-70
2021/12/04 07:55:54;;;;;;;205.50;40.85;;;5.20;99.90;;;;;;6311396;22;20113;-71
2021/12/04 07:58:20;;;;;;;239.90;42.05;;;5.30;99.90;;;;;;6311177;22;20415;-74
2021/12/04 08:00:46;;;;;;;252.45;45.70;;;5.20;99.90;;;;;;6310649;22;20117;-77
2021/12/04 08:03:12;;;;;;;276.65;47.97;;;5.10;99.90;;;;;;6310817;22;20019;-77
2021/12/04 08:05:37;;;;;;;204.55;40.83;;;5.10;99.90;;;;;;6284243;22;20058;-78
2021/12/04 08:08:04;;;;;;;204.90;39.63;;;5.20;99.90;;;;;;6311243;22;20106;-78
2021/12/04 08:10:31;;;;;;;284.17;45.22;;;5.10;99.90;;;;;;6284331;22;20285;-77
2021/12/04 08:12:58;;;;;;;231.95;40.75;;;5.10;99.90;;;;;;6257594;22;20015;-76
2021/12/04 08:15:23;;;;;;;171.52;38.83;;;5.00;99.90;;;;;;6283603;22;20015;-78
2021/12/04 08:17:49;;;;;;;185.23;37.97;;;5.10;99.90;;;;;;6310457;22;20033;-74
2021/12/04 08:20:17;;;;;;;177.93;38.65;;;5.10;99.90;;;;;;6311019;22;20099;-76
2021/12/04 08:22:43;;;;;;;299.08;46.92;;;5.00;99.90;;;;;;6311057;22;20011;-76
2021/12/04 08:25:11;;;;;;;285.80;46.90;;;5.10;99.90;;;;;;6283927;22;20077;-75
2021/12/04 08:27:37;;;;;;;176.73;39.13;;;5.10;99.90;;;;;;6310236;22;20085;-74
2021/12/04 08:30:06;;;;;;;194.95;41.03;;;5.20;99.90;;;;;;6283930;22;20019;-76
2021/12/04 08:32:32;;;;;;;201.45;40.17;;;5.10;99.90;;;;;;6311010;22;20015;-76
2021/12/04 08:34:58;;;;;;;182.43;39.25;;;5.10;99.90;;;;;;6311077;22;20373;-77
2021/12/04 08:37:24;;;;;;;172.18;38.30;;;5.10;99.90;;;;;;6284187;22;20479;-75
2021/12/04 08:39:49;;;;;;;164.50;37.35;;;5.10;99.90;;;;;;6283929;22;20015;-74
2021/12/04 08:42:16;;;;;;;172.57;38.47;;;5.00;99.90;;;;;;6310544;22;20011;-76
2021/12/04 08:44:43;;;;;;;187.90;37.60;;;5.00;99.90;;;;;;6310639;22;20015;-74
2021/12/04 08:47:10;;;;;;;248.73;45.30;;;5.00;99.90;;;;;;6310801;22;20015;-74
2021/12/04 08:49:36;;;;;;;217.90;41.22;;;5.00;99.90;;;;;;6310691;22;20033;-77
2021/12/04 08:52:04;;;;;;;156.43;37.50;;;5.10;99.90;;;;;;6310479;22;20007;-75
2021/12/04 08:54:33;;;;;;;353.50;50.30;;;5.00;99.90;;;;;;6310945;22;20371;-75
2021/12/04 08:56:59;;;;;;;168.65;37.55;;;5.10;99.90;;;;;;6283456;22;20011;-75
2021/12/04 08:59:25;;;;;;;159.82;36.58;;;5.00;99.90;;;;;;6309857;22;20019;-75
2021/12/04 09:01:50;;;;;;;218.68;42.30;;;5.10;99.90;;;;;;6310884;22;20026;-76
2021/12/04 09:04:24;;;;;;;179.75;38.70;;;5.10;99.90;;;;;;6310409;22;20050;-76
2021/12/04 09:06:51;;;;;;;156.85;37.30;;;5.10;99.90;;;;;;6309922;22;20069;-77
2021/12/04 09:09:17;;;;;;;134.88;35.20;;;5.20;99.90;;;;;;6307086;22;20022;-74
2021/12/04 09:11:47;;;;;;;150.93;36.53;;;5.10;99.90;;;;;;6310334;22;20050;-78
2021/12/04 09:14:14;;;;;;;158.60;37.35;;;5.20;99.90;;;;;;6283099;22;20019;-77
2021/12/04 09:16:39;;;;;;;192.20;39.05;;;5.20;99.90;;;;;;6270723;22;20019;-77
2021/12/04 09:19:05;;;;;;;127.78;34.33;;;5.20;99.90;;;;;;6252436;22;20026;-78
2021/12/04 09:21:33;;;;;;;173.40;39.20;;;5.10;99.90;;;;;;6279196;22;20026;-76
2021/12/04 09:24:07;;;;;;;132.65;33.88;;;5.20;99.90;;;;;;6278892;22;20305;-77
2021/12/04 09:29:46;;;;;;;196.60;41.30;;;5.20;99.90;;;;;;6227649;22;20102;-76
2021/12/04 10:02:15;;;;;;;174.33;36.67;;;5.20;99.90;;;;;;6252488;22;19984;-79
2021/12/04 10:18:46;;;;;;;118.82;32.00;;;5.20;99.90;;;;;;6279318;22;20030;-80
2021/12/04 10:23:59;;;;;;;121.25;33.25;;;5.10;99.90;;;;;;6252334;22;20023;-79
2021/12/04 10:32:26;;;;;;;120.85;33.22;;;5.10;99.90;;;;;;6251977;22;20024;-78
2021/12/04 10:34:53;;;;;;;116.22;33.15;;;5.30;99.90;;;;;;6277931;22;20080;-78
2021/12/04 10:37:24;;;;;;;128.27;33.55;;;5.20;99.90;;;;;;6226865;22;20297;-76
2021/12/04 10:39:53;;;;;;;179.48;38.20;;;5.20;99.90;;;;;;6251539;22;20113;-79
2021/12/04 10:42:23;;;;;;;143.65;32.97;;;5.20;99.90;;;;;;6278721;22;20027;-78
2021/12/04 10:44:55;;;;;;;101.60;29.58;;;5.20;99.90;;;;;;6226664;22;20034;-80
2021/12/04 10:47:27;;;;;;;96.70;30.25;;;5.20;99.90;;;;;;6278257;22;20023;-76
2021/12/04 10:50:35;;;;;;;136.70;32.30;;;5.20;99.90;;;;;;6252206;22;20026;-80
2021/12/04 10:52:59;;;;;;;106.32;29.45;;;5.10;99.90;;;;;;6250526;22;20093;-78
2021/12/04 10:55:53;;;;;;;116.55;31.65;;;5.30;99.90;;;;;;6278521;22;20091;-78
2021/12/04 11:04:08;;;;;;;97.50;27.85;;;5.30;99.90;;;;;;6251728;22;20347;-78
2021/12/04 11:26:40;;;;;;;101.75;28.33;;;5.30;99.90;;;;;;6311402;22;20019;-75
2021/12/04 11:42:38;;;;;;;87.63;26.77;;;5.20;99.90;;;;;;6311374;22;20019;-75
2021/12/04 11:45:14;;;;;;;90.43;28.38;;;5.30;99.90;;;;;;6311168;22;20090;-75
2021/12/04 11:47:43;;;;;;;96.85;29.17;;;5.30;99.90;;;;;;6311010;22;20069;-79
2021/12/04 11:50:20;;;;;;;126.70;32.75;;;5.20;99.90;;;;;;6283641;22;20034;-77
2021/12/04 11:52:54;;;;;;;81.00;28.08;;;5.20;99.90;;;;;;6284160;22;20084;-80
2021/12/04 11:55:22;;;;;;;103.65;30.73;;;5.30;99.90;;;;;;6284019;22;20098;-80
2021/12/04 11:57:49;;;;;;;104.90;31.85;;;5.30;99.90;;;;;;6278595;22;20059;-77
2021/12/04 12:00:29;;;;;;;106.93;32.67;;;5.30;99.90;;;;;;6217856;23;20039;-80
2021/12/04 12:03:09;;;;;;;119.15;32.10;;;5.40;99.90;;;;;;6191707;23;20401;-80
2021/12/04 12:05:54;;;;;;;101.13;31.17;;;5.40;99.90;;;;;;6216595;23;20085;-76
2021/12/04 12:08:32;;;;;;;94.07;29.95;;;5.40;99.90;;;;;;6214435;23;20016;-74
2021/12/04 12:11:18;;;;;;;106.95;32.28;;;5.30;99.90;;;;;;6216551;23;20016;-78
2021/12/04 12:13:48;;;;;;;103.75;31.48;;;5.30;99.90;;;;;;6192038;23;20078;-75
2021/12/04 12:16:23;;;;;;;102.88;31.40;;;5.30;99.90;;;;;;6225294;23;20016;-75
2021/12/04 12:18:56;;;;;;;88.57;29.60;;;5.40;99.90;;;;;;6222384;23;20426;-73
2021/12/04 12:21:48;;;;;;;85.22;28.52;;;5.30;99.90;;;;;;6248962;23;20024;-75
2021/12/04 12:27:14;;;;;;;99.35;29.35;;;5.30;99.90;;;;;;6222620;23;20546;-79
2021/12/04 12:37:53;;;;;;;117.80;31.05;;;5.30;99.90;;;;;;6219771;23;20504;-78
2021/12/04 12:40:26;;;;;;;110.38;31.75;;;5.30;99.90;;;;;;6222620;23;20313;-74
2021/12/04 12:42:52;;;;;;;125.65;33.35;;;5.30;99.90;;;;;;6248798;23;20425;-78
2021/12/04 12:45:29;;;;;;;121.20;31.80;;;5.40;99.90;;;;;;6222167;23;20030;-77
2021/12/04 12:48:03;;;;;;;106.63;31.45;;;5.40;99.90;;;;;;6249633;23;20024;-76
2021/12/04 12:50:34;;;;;;;137.95;36.58;;;5.40;99.90;;;;;;6248102;23;20439;-78
2021/12/04 12:53:26;;;;;;;141.25;35.78;;;5.40;99.90;;;;;;6248498;23;20016;-80
2021/12/04 12:56:02;;;;;;;116.60;32.95;;;5.40;99.90;;;;;;6248953;23;20042;-78
2021/12/04 12:58:36;;;;;;;106.20;32.97;;;5.50;99.90;;;;;;6221515;23;20020;-77
2021/12/04 13:12:47;;;;;;;88.93;31.48;;;5.50;99.90;;;;;;6222375;23;20027;-78
2021/12/04 13:15:37;;;;;;;90.57;31.55;;;5.50;99.90;;;;;;6222108;23;20020;-79
2021/12/04 13:18:21;;;;;;;85.82;29.23;;;5.50;99.90;;;;;;6246858;23;20028;-75
2021/12/04 13:20:49;;;;;;;77.03;30.00;;;5.50;99.90;;;;;;6248801;23;20020;-76
2021/12/04 13:23:19;;;;;;;71.00;29.50;;;5.60;99.90;;;;;;6221974;23;20016;-76
2021/12/04 13:25:53;;;;;;;83.35;29.17;;;5.50;99.90;;;;;;6248590;23;20123;-76
2021/12/04 13:28:22;;;;;;;85.88;28.73;;;5.50;99.90;;;;;;6248418;23;20020;-75
2021/12/04 13:30:49;;;;;;;70.03;27.70;;;5.70;99.90;;;;;;6218551;23;20447;-75
2021/12/04 13:33:15;;;;;;;58.95;25.55;;;5.60;99.90;;;;;;6247828;23;20020;-73
2021/12/04 13:35:45;;;;;;;60.92;25.70;;;5.60;99.90;;;;;;6220283;23;20047;-75
2021/12/04 13:38:13;;;;;;;61.25;25.77;;;5.60;99.90;;;;;;6248386;23;20079;-75
2021/12/04 13:40:39;;;;;;;61.35;24.40;;;5.70;99.90;;;;;;6248303;23;20024;-74
2021/12/04 13:43:12;;;;;;;62.47;25.77;;;5.60;99.90;;;;;;6220216;23;20396;-76
2021/12/04 13:45:38;;;;;;;80.85;27.77;;;5.70;99.90;;;;;;6247827;23;20324;-75
2021/12/04 13:48:05;;;;;;;74.13;28.48;;;5.70;99.90;;;;;;6247978;23;20479;-76
2021/12/04 13:53:18;;;;;;;71.05;26.55;;;5.60;99.90;;;;;;6247593;23;20490;-74
2021/12/04 13:55:51;;;;;;;69.07;27.85;;;5.60;99.90;;;;;;6246714;23;20091;-75
2021/12/04 13:58:16;;;;;;;69.57;27.38;;;5.60;99.90;;;;;;6248071;23;20012;-76
2021/12/04 14:00:44;;;;;;;74.70;28.15;;;5.70;99.90;;;;;;6247299;23;20027;-76
2021/12/04 14:03:10;;;;;;;78.20;28.85;;;5.60;99.90;;;;;;6247650;23;20081;-78
2021/12/04 14:05:35;;;;;;;73.45;27.45;;;5.60;99.90;;;;;;6247625;23;20024;-78
2021/12/04 14:08:04;;;;;;;72.80;25.88;;;5.60;99.90;;;;;;6247751;23;20389;-77
2021/12/04 14:10:41;;;;;;;70.78;25.95;;;5.60;99.90;;;;;;6248025;23;20016;-76
2021/12/04 14:13:09;;;;;;;68.38;25.45;;;5.60;99.90;;;;;;6248063;23;20012;-76
2021/12/04 14:15:35;;;;;;;65.97;24.95;;;5.60;99.90;;;;;;6221507;23;20480;-76
2021/12/04 14:18:08;;;;;;;65.80;25.50;;;5.50;99.90;;;;;;6247057;23;20059;-76
2021/12/04 14:20:42;;;;;;;71.93;25.38;;;5.50;99.90;;;;;;6221809;23;20024;-77
2021/12/04 14:23:08;;;;;;;68.30;26.33;;;5.50;99.90;;;;;;6248021;23;20020;-76
2021/12/04 14:25:42;;;;;;;70.20;24.77;;;5.50;99.90;;;;;;6196587;23;20020;-76
2021/12/04 14:28:07;;;;;;;65.75;24.02;;;5.50;99.90;;;;;;6221635;23;20301;-75
2021/12/04 14:30:35;;;;;;;66.45;24.13;;;5.50;99.90;;;;;;6247215;23;20034;-77
2021/12/04 14:33:07;;;;;;;79.28;26.65;;;5.40;99.90;;;;;;6247839;23;20059;-77
2021/12/04 14:35:39;;;;;;;74.97;27.77;;;5.50;99.90;;;;;;6221556;23;20031;-75
2021/12/04 14:38:10;;;;;;;78.97;27.73;;;5.50;99.90;;;;;;6247937;23;20046;-78
2021/12/04 14:40:42;;;;;;;78.63;27.75;;;5.50;99.90;;;;;;6221236;23;20087;-76
2021/12/04 14:43:13;;;;;;;78.22;27.58;;;5.50;99.90;;;;;;6221080;23;20341;-77
2021/12/04 14:45:41;;;;;;;82.63;25.90;;;5.50;99.90;;;;;;6221528;23;20082;-80
2021/12/04 14:48:18;;;;;;;78.20;27.05;;;5.40;99.90;;;;;;6219578;23;20108;-76
2021/12/04 14:50:49;;;;;;;86.57;27.83;;;5.40;99.90;;;;;;6193460;23;20028;-75
2021/12/04 14:53:17;;;;;;;90.65;28.15;;;5.40;99.90;;;;;;6247440;23;20051;-77
2021/12/04 14:55:47;;;;;;;107.25;30.15;;;5.50;99.90;;;;;;6247215;23;20016;-75
2021/12/04 14:58:18;;;;;;;89.85;28.77;;;5.50;99.90;;;;;;6247350;23;20016;-75
2021/12/04 15:00:47;;;;;;;88.90;29.88;;;5.50;99.90;;;;;;6247707;23;20062;-75
2021/12/04 15:03:17;;;;;;;90.07;28.48;;;5.40;99.90;;;;;;6247552;23;20016;-77
2021/12/04 15:05:49;;;;;;;90.45;29.42;;;5.50;99.90;;;;;;6246906;23;20020;-76
2021/12/04 15:08:23;;;;;;;81.90;28.85;;;5.40;99.90;;;;;;6247405;23;20024;-74
2021/12/04 15:11:01;;;;;;;97.17;30.10;;;5.50;99.90;;;;;;6220737;23;20027;-76
2021/12/04 15:13:31;;;;;;;86.90;29.40;;;5.40;99.90;;;;;;6247865;23;20239;-77
2021/12/04 15:16:03;;;;;;;79.07;26.38;;;5.40;99.90;;;;;;6221080;23;20024;-76
2021/12/04 15:18:39;;;;;;;62.88;23.13;;;5.50;99.90;;;;;;6220208;23;20078;-79
2021/12/04 15:21:14;;;;;;;84.57;27.63;;;5.50;99.90;;;;;;6247706;23;20091;-77
2021/12/04 15:23:40;;;;;;;75.50;26.95;;;5.50;99.90;;;;;;6220724;23;20016;-75
2021/12/04 15:26:19;;;;;;;87.13;26.92;;;5.40;99.90;;;;;;6246725;23;20297;-77
2021/12/04 15:28:52;;;;;;;85.88;28.55;;;5.50;99.90;;;;;;6247224;23;20425;-77
2021/12/04 15:31:21;;;;;;;97.63;29.65;;;5.50;99.90;;;;;;6220235;23;20020;-76
2021/12/04 15:33:49;;;;;;;96.00;29.20;;;5.50;99.90;;;;;;6220541;23;20027;-78